sensor_id;sensor_type;location;lat;lon;timestamp;P1;durP1;ratioP1;P2;durP2;ratioP2
19605;SDS011;9950;50.168;8.210;2022-08-19T00:02:12;29.63;;;19.77;;
19605;SDS011;9950;50.168;8.210;2022-08-19T00:04:39;27.65;;;19.55;;
19605;SDS011;9950;50.168;8.210;2022-08-19T00:07:07;28.65;;;20.67;;
19605;SDS011;9950;50.168;8.210;2022-08-19T00:09:34;28.13;;;19.90;;
19605;SDS011;9950;50.168;8.210;2022-08-19T00:12:01;29.35;;;20.15;;
19605;SDS011;9950;50.168;8.210;2022-08-19T00:14:28;27.83;;;20.70;;
19605;SDS011;9950;50.168;8.210;2022-08-19T00:16:56;24.55;;;18.52;;
19605;SDS011;9950;50.168;8.210;2022-08-19T00:19:25;28.52;;;19.05;;
19605;SDS011;9950;50.168;8.210;2022-08-19T00:21:52;25.95;;;19.92;;
19605;SDS011;9950;50.168;8.210;2022-08-19T00:24:19;29.20;;;19.42;;
19605;SDS011;9950;50.168;8.210;2022-08-19T00:26:47;25.92;;;19.00;;
19605;SDS011;9950;50.168;8.210;2022-08-19T00:29:16;25.05;;;17.98;;
19605;SDS011;9950;50.168;8.210;2022-08-19T00:31:43;27.42;;;19.92;;
19605;SDS011;9950;50.168;8.210;2022-08-19T00:34:10;26.10;;;19.20;;
19605;SDS011;9950;50.168;8.210;2022-08-19T00:36:39;30.20;;;20.40;;
19605;SDS011;9950;50.168;8.210;2022-08-19T00:39:07;26.77;;;20.02;;
19605;SDS011;9950;50.168;8.210;2022-08-19T00:41:34;27.42;;;20.65;;
19605;SDS011;9950;50.168;8.210;2022-08-19T00:44:03;27.17;;;19.92;;
19605;SDS011;9950;50.168;8.210;2022-08-19T00:46:30;27.23;;;18.95;;
19605;SDS011;9950;50.168;8.210;2022-08-19T00:48:57;27.08;;;20.65;;
19605;SDS011;9950;50.168;8.210;2022-08-19T00:51:25;26.40;;;19.17;;
19605;SDS011;9950;50.168;8.210;2022-08-19T00:53:55;26.83;;;19.83;;
19605;SDS011;9950;50.168;8.210;2022-08-19T00:56:23;25.00;;;19.85;;
19605;SDS011;9950;50.168;8.210;2022-08-19T00:58:51;31.35;;;20.50;;
19605;SDS011;9950;50.168;8.210;2022-08-19T01:01:18;29.60;;;21.50;;
19605;SDS011;9950;50.168;8.210;2022-08-19T01:03:46;27.95;;;20.75;;
19605;SDS011;9950;50.168;8.210;2022-08-19T01:06:13;26.27;;;19.67;;
19605;SDS011;9950;50.168;8.210;2022-08-19T01:08:40;30.38;;;19.92;;
19605;SDS011;9950;50.168;8.210;2022-08-19T01:11:09;25.05;;;20.02;;
19605;SDS011;9950;50.168;8.210;2022-08-19T01:13:36;27.45;;;20.63;;
19605;SDS011;9950;50.168;8.210;2022-08-19T01:16:05;28.77;;;19.90;;
19605;SDS011;9950;50.168;8.210;2022-08-19T01:18:35;29.85;;;21.00;;
19605;SDS011;9950;50.168;8.210;2022-08-19T01:21:05;29.75;;;21.60;;
19605;SDS011;9950;50.168;8.210;2022-08-19T01:23:35;35.50;;;24.27;;
19605;SDS011;9950;50.168;8.210;2022-08-19T01:26:09;38.00;;;24.98;;
19605;SDS011;9950;50.168;8.210;2022-08-19T01:28:36;40.10;;;26.63;;
19605;SDS011;9950;50.168;8.210;2022-08-19T01:31:04;37.22;;;25.98;;
19605;SDS011;9950;50.168;8.210;2022-08-19T01:33:32;40.53;;;26.58;;
19605;SDS011;9950;50.168;8.210;2022-08-19T01:36:06;35.38;;;25.63;;
19605;SDS011;9950;50.168;8.210;2022-08-19T01:38:36;38.42;;;26.17;;
19605;SDS011;9950;50.168;8.210;2022-08-19T01:41:04;36.67;;;25.83;;
19605;SDS011;9950;50.168;8.210;2022-08-19T01:43:32;35.92;;;24.90;;
19605;SDS011;9950;50.168;8.210;2022-08-19T01:45:59;33.13;;;24.58;;
19605;SDS011;9950;50.168;8.210;2022-08-19T01:48:32;39.80;;;26.45;;
19605;SDS011;9950;50.168;8.210;2022-08-19T01:50:59;36.05;;;24.58;;
19605;SDS011;9950;50.168;8.210;2022-08-19T01:53:26;36.30;;;25.63;;
19605;SDS011;9950;50.168;8.210;2022-08-19T01:55:55;35.28;;;24.35;;
19605;SDS011;9950;50.168;8.210;2022-08-19T01:58:23;32.53;;;24.20;;
19605;SDS011;9950;50.168;8.210;2022-08-19T02:00:51;31.00;;;22.52;;
19605;SDS011;9950;50.168;8.210;2022-08-19T02:03:18;33.00;;;23.67;;
19605;SDS011;9950;50.168;8.210;2022-08-19T02:05:45;33.08;;;23.60;;
19605;SDS011;9950;50.168;8.210;2022-08-19T02:08:12;31.70;;;21.88;;
19605;SDS011;9950;50.168;8.210;2022-08-19T02:10:40;32.45;;;21.90;;
19605;SDS011;9950;50.168;8.210;2022-08-19T02:13:09;33.30;;;22.83;;
19605;SDS011;9950;50.168;8.210;2022-08-19T02:15:36;30.15;;;22.17;;
19605;SDS011;9950;50.168;8.210;2022-08-19T02:18:04;31.95;;;22.10;;
19605;SDS011;9950;50.168;8.210;2022-08-19T02:20:32;31.17;;;22.55;;
19605;SDS011;9950;50.168;8.210;2022-08-19T02:22:59;28.67;;;21.95;;
19605;SDS011;9950;50.168;8.210;2022-08-19T02:25:27;29.33;;;21.52;;
19605;SDS011;9950;50.168;8.210;2022-08-19T02:27:54;31.42;;;22.77;;
19605;SDS011;9950;50.168;8.210;2022-08-19T02:30:23;29.50;;;21.90;;
19605;SDS011;9950;50.168;8.210;2022-08-19T02:32:50;25.67;;;20.30;;
19605;SDS011;9950;50.168;8.210;2022-08-19T02:35:18;29.00;;;20.88;;
19605;SDS011;9950;50.168;8.210;2022-08-19T02:37:45;26.70;;;20.40;;
19605;SDS011;9950;50.168;8.210;2022-08-19T02:40:30;27.75;;;20.75;;
19605;SDS011;9950;50.168;8.210;2022-08-19T02:42:58;25.17;;;19.75;;
19605;SDS011;9950;50.168;8.210;2022-08-19T02:45:30;24.02;;;19.65;;
19605;SDS011;9950;50.168;8.210;2022-08-19T02:47:57;26.60;;;19.30;;
19605;SDS011;9950;50.168;8.210;2022-08-19T02:50:25;27.20;;;20.50;;
19605;SDS011;9950;50.168;8.210;2022-08-19T02:52:52;23.83;;;19.08;;
19605;SDS011;9950;50.168;8.210;2022-08-19T02:55:19;25.40;;;19.17;;
19605;SDS011;9950;50.168;8.210;2022-08-19T02:57:47;26.25;;;18.98;;
19605;SDS011;9950;50.168;8.210;2022-08-19T03:00:14;25.00;;;18.95;;
19605;SDS011;9950;50.168;8.210;2022-08-19T03:02:43;26.05;;;19.10;;
19605;SDS011;9950;50.168;8.210;2022-08-19T03:05:11;26.23;;;19.33;;
19605;SDS011;9950;50.168;8.210;2022-08-19T03:07:39;26.77;;;20.40;;
19605;SDS011;9950;50.168;8.210;2022-08-19T03:10:06;26.27;;;18.58;;
19605;SDS011;9950;50.168;8.210;2022-08-19T03:12:34;26.73;;;19.77;;
19605;SDS011;9950;50.168;8.210;2022-08-19T03:15:02;24.98;;;19.15;;
19605;SDS011;9950;50.168;8.210;2022-08-19T03:17:29;29.98;;;19.52;;
19605;SDS011;9950;50.168;8.210;2022-08-19T03:19:58;23.98;;;18.80;;
19605;SDS011;9950;50.168;8.210;2022-08-19T03:22:25;24.98;;;19.00;;
19605;SDS011;9950;50.168;8.210;2022-08-19T03:24:53;25.92;;;18.65;;
19605;SDS011;9950;50.168;8.210;2022-08-19T03:27:20;25.13;;;19.40;;
19605;SDS011;9950;50.168;8.210;2022-08-19T03:29:48;22.52;;;18.15;;
19605;SDS011;9950;50.168;8.210;2022-08-19T03:32:15;27.55;;;19.25;;
19605;SDS011;9950;50.168;8.210;2022-08-19T03:34:42;22.45;;;18.00;;
19605;SDS011;9950;50.168;8.210;2022-08-19T03:37:11;24.63;;;18.98;;
19605;SDS011;9950;50.168;8.210;2022-08-19T03:39:39;24.70;;;18.90;;
19605;SDS011;9950;50.168;8.210;2022-08-19T03:42:07;26.13;;;19.30;;
19605;SDS011;9950;50.168;8.210;2022-08-19T03:44:34;24.95;;;17.85;;
19605;SDS011;9950;50.168;8.210;2022-08-19T03:47:02;27.40;;;18.98;;
19605;SDS011;9950;50.168;8.210;2022-08-19T03:49:30;25.38;;;19.13;;
19605;SDS011;9950;50.168;8.210;2022-08-19T03:51:58;25.40;;;19.15;;
19605;SDS011;9950;50.168;8.210;2022-08-19T03:54:28;26.35;;;20.15;;
19605;SDS011;9950;50.168;8.210;2022-08-19T03:56:55;27.50;;;20.42;;
19605;SDS011;9950;50.168;8.210;2022-08-19T03:59:24;26.77;;;19.67;;
19605;SDS011;9950;50.168;8.210;2022-08-19T04:01:52;27.10;;;20.30;;
19605;SDS011;9950;50.168;8.210;2022-08-19T04:04:19;25.90;;;19.42;;
19605;SDS011;9950;50.168;8.210;2022-08-19T04:06:46;27.15;;;20.45;;
19605;SDS011;9950;50.168;8.210;2022-08-19T04:09:14;26.08;;;19.00;;
19605;SDS011;9950;50.168;8.210;2022-08-19T04:11:43;29.13;;;20.52;;
19605;SDS011;9950;50.168;8.210;2022-08-19T04:14:11;28.15;;;20.17;;
19605;SDS011;9950;50.168;8.210;2022-08-19T04:16:38;26.42;;;19.77;;
19605;SDS011;9950;50.168;8.210;2022-08-19T04:19:06;24.40;;;19.08;;
19605;SDS011;9950;50.168;8.210;2022-08-19T04:21:33;26.20;;;19.15;;
19605;SDS011;9950;50.168;8.210;2022-08-19T04:24:01;28.10;;;19.42;;
19605;SDS011;9950;50.168;8.210;2022-08-19T04:26:30;29.20;;;19.67;;
19605;SDS011;9950;50.168;8.210;2022-08-19T04:28:59;26.05;;;18.98;;
19605;SDS011;9950;50.168;8.210;2022-08-19T04:31:27;25.38;;;19.33;;
19605;SDS011;9950;50.168;8.210;2022-08-19T04:33:55;27.38;;;19.05;;
19605;SDS011;9950;50.168;8.210;2022-08-19T04:36:24;28.38;;;19.40;;
19605;SDS011;9950;50.168;8.210;2022-08-19T04:38:53;25.83;;;19.15;;
19605;SDS011;9950;50.168;8.210;2022-08-19T04:41:20;27.08;;;20.60;;
19605;SDS011;9950;50.168;8.210;2022-08-19T04:44:07;26.02;;;19.98;;
19605;SDS011;9950;50.168;8.210;2022-08-19T04:46:35;25.33;;;19.63;;
19605;SDS011;9950;50.168;8.210;2022-08-19T04:49:03;29.52;;;20.80;;
19605;SDS011;9950;50.168;8.210;2022-08-19T04:51:31;25.77;;;18.67;;
19605;SDS011;9950;50.168;8.210;2022-08-19T04:53:58;25.15;;;18.58;;
19605;SDS011;9950;50.168;8.210;2022-08-19T04:56:26;29.73;;;20.92;;
19605;SDS011;9950;50.168;8.210;2022-08-19T04:58:54;27.13;;;20.25;;
19605;SDS011;9950;50.168;8.210;2022-08-19T05:01:24;27.95;;;19.77;;
19605;SDS011;9950;50.168;8.210;2022-08-19T05:03:53;29.70;;;20.25;;
19605;SDS011;9950;50.168;8.210;2022-08-19T05:06:21;28.42;;;21.00;;
19605;SDS011;9950;50.168;8.210;2022-08-19T05:08:49;27.45;;;20.42;;
19605;SDS011;9950;50.168;8.210;2022-08-19T05:11:17;32.50;;;21.73;;
19605;SDS011;9950;50.168;8.210;2022-08-19T05:13:45;30.25;;;21.13;;
19605;SDS011;9950;50.168;8.210;2022-08-19T05:16:14;31.17;;;23.23;;
19605;SDS011;9950;50.168;8.210;2022-08-19T05:18:43;38.67;;;22.80;;
19605;SDS011;9950;50.168;8.210;2022-08-19T05:21:29;33.03;;;22.80;;
19605;SDS011;9950;50.168;8.210;2022-08-19T05:24:10;30.08;;;21.65;;
19605;SDS011;9950;50.168;8.210;2022-08-19T05:26:39;31.60;;;22.85;;
19605;SDS011;9950;50.168;8.210;2022-08-19T05:29:07;29.80;;;22.48;;
19605;SDS011;9950;50.168;8.210;2022-08-19T05:31:35;32.38;;;22.48;;
19605;SDS011;9950;50.168;8.210;2022-08-19T05:34:04;34.45;;;22.17;;
19605;SDS011;9950;50.168;8.210;2022-08-19T05:36:33;29.50;;;22.98;;
19605;SDS011;9950;50.168;8.210;2022-08-19T05:39:04;30.50;;;23.08;;
19605;SDS011;9950;50.168;8.210;2022-08-19T05:41:31;35.33;;;23.25;;
19605;SDS011;9950;50.168;8.210;2022-08-19T05:44:00;32.05;;;22.35;;
19605;SDS011;9950;50.168;8.210;2022-08-19T05:46:31;29.55;;;22.08;;
19605;SDS011;9950;50.168;8.210;2022-08-19T05:48:58;27.95;;;20.95;;
19605;SDS011;9950;50.168;8.210;2022-08-19T05:51:26;32.65;;;22.85;;
19605;SDS011;9950;50.168;8.210;2022-08-19T05:53:54;30.83;;;22.20;;
19605;SDS011;9950;50.168;8.210;2022-08-19T05:56:21;30.77;;;21.35;;
19605;SDS011;9950;50.168;8.210;2022-08-19T05:58:48;27.88;;;21.25;;
19605;SDS011;9950;50.168;8.210;2022-08-19T06:01:16;27.95;;;21.15;;
19605;SDS011;9950;50.168;8.210;2022-08-19T06:03:44;26.80;;;19.73;;
19605;SDS011;9950;50.168;8.210;2022-08-19T06:06:13;25.38;;;20.33;;
19605;SDS011;9950;50.168;8.210;2022-08-19T06:08:42;26.85;;;20.17;;
19605;SDS011;9950;50.168;8.210;2022-08-19T06:11:14;24.15;;;18.55;;
19605;SDS011;9950;50.168;8.210;2022-08-19T06:13:42;23.42;;;18.00;;
19605;SDS011;9950;50.168;8.210;2022-08-19T06:16:10;22.95;;;18.00;;
19605;SDS011;9950;50.168;8.210;2022-08-19T06:18:37;26.90;;;18.33;;
19605;SDS011;9950;50.168;8.210;2022-08-19T06:21:04;24.13;;;17.65;;
19605;SDS011;9950;50.168;8.210;2022-08-19T06:23:31;24.95;;;17.00;;
19605;SDS011;9950;50.168;8.210;2022-08-19T06:26:01;25.77;;;17.80;;
19605;SDS011;9950;50.168;8.210;2022-08-19T06:28:29;25.50;;;19.17;;
19605;SDS011;9950;50.168;8.210;2022-08-19T06:30:57;23.38;;;16.90;;
19605;SDS011;9950;50.168;8.210;2022-08-19T06:33:26;26.48;;;17.02;;
19605;SDS011;9950;50.168;8.210;2022-08-19T06:35:53;23.27;;;16.67;;
19605;SDS011;9950;50.168;8.210;2022-08-19T06:38:20;22.92;;;16.10;;
19605;SDS011;9950;50.168;8.210;2022-08-19T06:40:48;20.40;;;15.55;;
19605;SDS011;9950;50.168;8.210;2022-08-19T06:43:16;19.98;;;16.40;;
19605;SDS011;9950;50.168;8.210;2022-08-19T06:45:44;24.17;;;16.90;;
19605;SDS011;9950;50.168;8.210;2022-08-19T06:48:11;21.50;;;15.95;;
19605;SDS011;9950;50.168;8.210;2022-08-19T06:50:38;19.27;;;14.52;;
19605;SDS011;9950;50.168;8.210;2022-08-19T06:53:06;17.98;;;13.88;;
19605;SDS011;9950;50.168;8.210;2022-08-19T06:55:34;18.75;;;14.48;;
19605;SDS011;9950;50.168;8.210;2022-08-19T06:58:01;20.67;;;14.35;;
19605;SDS011;9950;50.168;8.210;2022-08-19T07:00:30;19.10;;;15.25;;
19605;SDS011;9950;50.168;8.210;2022-08-19T07:02:57;19.90;;;14.90;;
19605;SDS011;9950;50.168;8.210;2022-08-19T07:05:25;18.35;;;15.10;;
19605;SDS011;9950;50.168;8.210;2022-08-19T07:07:52;19.23;;;15.45;;
19605;SDS011;9950;50.168;8.210;2022-08-19T07:10:20;19.65;;;13.45;;
19605;SDS011;9950;50.168;8.210;2022-08-19T07:12:47;18.55;;;13.57;;
19605;SDS011;9950;50.168;8.210;2022-08-19T07:15:15;19.40;;;14.15;;
19605;SDS011;9950;50.168;8.210;2022-08-19T07:17:44;17.52;;;13.73;;
19605;SDS011;9950;50.168;8.210;2022-08-19T07:20:12;19.48;;;13.45;;
19605;SDS011;9950;50.168;8.210;2022-08-19T07:22:40;17.30;;;13.75;;
19605;SDS011;9950;50.168;8.210;2022-08-19T07:25:07;19.33;;;13.90;;
19605;SDS011;9950;50.168;8.210;2022-08-19T07:27:35;14.98;;;12.30;;
19605;SDS011;9950;50.168;8.210;2022-08-19T07:30:05;18.08;;;12.75;;
19605;SDS011;9950;50.168;8.210;2022-08-19T07:32:32;16.75;;;12.38;;
19605;SDS011;9950;50.168;8.210;2022-08-19T07:35:01;20.25;;;13.23;;
19605;SDS011;9950;50.168;8.210;2022-08-19T07:37:29;16.08;;;13.30;;
19605;SDS011;9950;50.168;8.210;2022-08-19T07:39:56;21.23;;;14.45;;
19605;SDS011;9950;50.168;8.210;2022-08-19T07:42:24;20.25;;;15.40;;
19605;SDS011;9950;50.168;8.210;2022-08-19T07:44:51;20.70;;;15.18;;
19605;SDS011;9950;50.168;8.210;2022-08-19T07:47:18;22.17;;;16.25;;
19605;SDS011;9950;50.168;8.210;2022-08-19T07:49:45;22.40;;;17.13;;
19605;SDS011;9950;50.168;8.210;2022-08-19T07:52:15;25.88;;;18.33;;
19605;SDS011;9950;50.168;8.210;2022-08-19T07:54:42;26.75;;;18.63;;
19605;SDS011;9950;50.168;8.210;2022-08-19T07:57:09;23.92;;;17.83;;
19605;SDS011;9950;50.168;8.210;2022-08-19T07:59:37;23.98;;;17.60;;
19605;SDS011;9950;50.168;8.210;2022-08-19T08:02:04;22.50;;;16.40;;
19605;SDS011;9950;50.168;8.210;2022-08-19T08:04:31;27.30;;;19.35;;
19605;SDS011;9950;50.168;8.210;2022-08-19T08:07:18;25.08;;;16.55;;
19605;SDS011;9950;50.168;8.210;2022-08-19T08:10:03;23.55;;;16.50;;
19605;SDS011;9950;50.168;8.210;2022-08-19T08:12:33;29.75;;;21.38;;
19605;SDS011;9950;50.168;8.210;2022-08-19T08:15:04;29.50;;;20.65;;
19605;SDS011;9950;50.168;8.210;2022-08-19T08:17:32;30.00;;;19.60;;
19605;SDS011;9950;50.168;8.210;2022-08-19T08:20:02;24.48;;;18.25;;
19605;SDS011;9950;50.168;8.210;2022-08-19T08:22:33;22.92;;;16.67;;
19605;SDS011;9950;50.168;8.210;2022-08-19T08:25:19;23.50;;;16.70;;
19605;SDS011;9950;50.168;8.210;2022-08-19T08:27:47;24.92;;;15.63;;
19605;SDS011;9950;50.168;8.210;2022-08-19T08:30:16;22.98;;;15.70;;
19605;SDS011;9950;50.168;8.210;2022-08-19T08:32:43;21.35;;;16.52;;
19605;SDS011;9950;50.168;8.210;2022-08-19T08:35:12;25.30;;;17.98;;
19605;SDS011;9950;50.168;8.210;2022-08-19T08:37:42;29.45;;;19.77;;
19605;SDS011;9950;50.168;8.210;2022-08-19T08:40:13;28.02;;;20.65;;
19605;SDS011;9950;50.168;8.210;2022-08-19T08:42:55;29.88;;;23.23;;
19605;SDS011;9950;50.168;8.210;2022-08-19T08:45:25;28.30;;;22.48;;
19605;SDS011;9950;50.168;8.210;2022-08-19T08:47:53;26.55;;;20.85;;
19605;SDS011;9950;50.168;8.210;2022-08-19T08:50:24;28.80;;;20.77;;
19605;SDS011;9950;50.168;8.210;2022-08-19T08:52:56;26.25;;;19.35;;
19605;SDS011;9950;50.168;8.210;2022-08-19T08:55:25;28.35;;;22.38;;
19605;SDS011;9950;50.168;8.210;2022-08-19T08:57:53;26.95;;;23.13;;
19605;SDS011;9950;50.168;8.210;2022-08-19T09:00:23;29.70;;;22.83;;
19605;SDS011;9950;50.168;8.210;2022-08-19T09:02:51;29.65;;;22.98;;
19605;SDS011;9950;50.168;8.210;2022-08-19T09:05:18;30.75;;;23.48;;
19605;SDS011;9950;50.168;8.210;2022-08-19T09:07:50;33.42;;;23.60;;
19605;SDS011;9950;50.168;8.210;2022-08-19T09:10:23;31.70;;;24.25;;
19605;SDS011;9950;50.168;8.210;2022-08-19T09:12:57;29.63;;;22.55;;
19605;SDS011;9950;50.168;8.210;2022-08-19T09:15:28;26.92;;;21.92;;
19605;SDS011;9950;50.168;8.210;2022-08-19T09:17:59;28.92;;;22.15;;
19605;SDS011;9950;50.168;8.210;2022-08-19T09:20:29;28.40;;;23.13;;
19605;SDS011;9950;50.168;8.210;2022-08-19T09:22:57;28.92;;;24.15;;
19605;SDS011;9950;50.168;8.210;2022-08-19T09:25:26;27.05;;;23.77;;
19605;SDS011;9950;50.168;8.210;2022-08-19T09:27:54;28.13;;;22.23;;
19605;SDS011;9950;50.168;8.210;2022-08-19T09:30:22;30.20;;;22.80;;
19605;SDS011;9950;50.168;8.210;2022-08-19T09:32:50;29.33;;;22.17;;
19605;SDS011;9950;50.168;8.210;2022-08-19T09:35:18;27.38;;;22.13;;
19605;SDS011;9950;50.168;8.210;2022-08-19T09:37:47;23.75;;;20.48;;
19605;SDS011;9950;50.168;8.210;2022-08-19T09:40:15;23.30;;;19.70;;
19605;SDS011;9950;50.168;8.210;2022-08-19T09:42:44;21.85;;;17.48;;
19605;SDS011;9950;50.168;8.210;2022-08-19T09:45:12;20.38;;;17.35;;
19605;SDS011;9950;50.168;8.210;2022-08-19T09:47:40;19.42;;;15.45;;
19605;SDS011;9950;50.168;8.210;2022-08-19T09:50:08;20.95;;;16.05;;
19605;SDS011;9950;50.168;8.210;2022-08-19T09:52:35;17.67;;;14.05;;
19605;SDS011;9950;50.168;8.210;2022-08-19T09:55:03;17.95;;;15.55;;
19605;SDS011;9950;50.168;8.210;2022-08-19T09:57:30;15.80;;;13.77;;
19605;SDS011;9950;50.168;8.210;2022-08-19T09:59:59;15.93;;;12.25;;
19605;SDS011;9950;50.168;8.210;2022-08-19T10:02:26;15.52;;;12.85;;
19605;SDS011;9950;50.168;8.210;2022-08-19T10:04:53;16.58;;;13.38;;
19605;SDS011;9950;50.168;8.210;2022-08-19T10:07:39;13.95;;;11.10;;
19605;SDS011;9950;50.168;8.210;2022-08-19T10:10:06;15.00;;;10.27;;
19605;SDS011;9950;50.168;8.210;2022-08-19T10:12:34;12.55;;;9.75;;
19605;SDS011;9950;50.168;8.210;2022-08-19T10:15:03;12.45;;;9.40;;
19605;SDS011;9950;50.168;8.210;2022-08-19T10:17:31;13.13;;;10.30;;
19605;SDS011;9950;50.168;8.210;2022-08-19T10:20:00;11.20;;;9.02;;
19605;SDS011;9950;50.168;8.210;2022-08-19T10:22:29;12.45;;;9.55;;
19605;SDS011;9950;50.168;8.210;2022-08-19T10:24:56;12.30;;;10.32;;
19605;SDS011;9950;50.168;8.210;2022-08-19T10:27:24;14.30;;;11.35;;
19605;SDS011;9950;50.168;8.210;2022-08-19T10:29:52;11.75;;;10.10;;
19605;SDS011;9950;50.168;8.210;2022-08-19T10:32:20;11.73;;;9.63;;
19605;SDS011;9950;50.168;8.210;2022-08-19T10:34:49;11.23;;;9.30;;
19605;SDS011;9950;50.168;8.210;2022-08-19T10:37:17;12.13;;;10.93;;
19605;SDS011;9950;50.168;8.210;2022-08-19T10:39:45;15.23;;;12.27;;
19605;SDS011;9950;50.168;8.210;2022-08-19T10:42:13;11.63;;;10.40;;
19605;SDS011;9950;50.168;8.210;2022-08-19T10:44:41;11.60;;;10.40;;
19605;SDS011;9950;50.168;8.210;2022-08-19T10:47:08;10.70;;;9.52;;
19605;SDS011;9950;50.168;8.210;2022-08-19T10:49:36;12.70;;;10.02;;
19605;SDS011;9950;50.168;8.210;2022-08-19T10:52:24;11.52;;;10.18;;
19605;SDS011;9950;50.168;8.210;2022-08-19T10:54:59;10.95;;;9.80;;
19605;SDS011;9950;50.168;8.210;2022-08-19T10:57:44;10.60;;;8.82;;
19605;SDS011;9950;50.168;8.210;2022-08-19T11:00:11;9.45;;;8.38;;
19605;SDS011;9950;50.168;8.210;2022-08-19T11:02:39;9.85;;;8.85;;
19605;SDS011;9950;50.168;8.210;2022-08-19T11:05:08;9.77;;;8.77;;
19605;SDS011;9950;50.168;8.210;2022-08-19T11:07:37;9.07;;;7.80;;
19605;SDS011;9950;50.168;8.210;2022-08-19T11:10:06;8.35;;;7.18;;
19605;SDS011;9950;50.168;8.210;2022-08-19T11:12:33;10.27;;;8.57;;
19605;SDS011;9950;50.168;8.210;2022-08-19T11:15:04;8.98;;;7.93;;
19605;SDS011;9950;50.168;8.210;2022-08-19T11:17:32;9.48;;;8.45;;
19605;SDS011;9950;50.168;8.210;2022-08-19T11:20:00;8.20;;;7.50;;
19605;SDS011;9950;50.168;8.210;2022-08-19T11:22:31;8.68;;;7.88;;
19605;SDS011;9950;50.168;8.210;2022-08-19T11:24:59;8.38;;;7.57;;
19605;SDS011;9950;50.168;8.210;2022-08-19T11:27:27;7.72;;;6.93;;
19605;SDS011;9950;50.168;8.210;2022-08-19T11:29:55;7.30;;;6.57;;
19605;SDS011;9950;50.168;8.210;2022-08-19T11:32:22;6.85;;;6.25;;
19605;SDS011;9950;50.168;8.210;2022-08-19T11:34:49;10.10;;;5.20;;
19605;SDS011;9950;50.168;8.210;2022-08-19T11:37:17;5.90;;;5.30;;
19605;SDS011;9950;50.168;8.210;2022-08-19T11:39:46;7.47;;;6.65;;
19605;SDS011;9950;50.168;8.210;2022-08-19T11:42:13;6.07;;;5.50;;
19605;SDS011;9950;50.168;8.210;2022-08-19T11:44:57;5.88;;;5.28;;
19605;SDS011;9950;50.168;8.210;2022-08-19T11:47:25;5.28;;;4.78;;
19605;SDS011;9950;50.168;8.210;2022-08-19T11:49:53;10.10;;;5.10;;
19605;SDS011;9950;50.168;8.210;2022-08-19T11:52:20;6.78;;;5.00;;
19605;SDS011;9950;50.168;8.210;2022-08-19T11:54:49;7.78;;;5.15;;
19605;SDS011;9950;50.168;8.210;2022-08-19T11:57:16;4.75;;;4.35;;
19605;SDS011;9950;50.168;8.210;2022-08-19T11:59:47;5.32;;;4.75;;
19605;SDS011;9950;50.168;8.210;2022-08-19T12:02:15;5.10;;;4.65;;
19605;SDS011;9950;50.168;8.210;2022-08-19T12:04:42;5.50;;;5.00;;
19605;SDS011;9950;50.168;8.210;2022-08-19T12:07:09;5.15;;;4.65;;
19605;SDS011;9950;50.168;8.210;2022-08-19T12:09:37;7.63;;;5.50;;
19605;SDS011;9950;50.168;8.210;2022-08-19T12:12:07;6.35;;;5.35;;
19605;SDS011;9950;50.168;8.210;2022-08-19T12:14:34;5.45;;;4.63;;
19605;SDS011;9950;50.168;8.210;2022-08-19T12:17:01;5.82;;;5.32;;
19605;SDS011;9950;50.168;8.210;2022-08-19T12:19:31;5.13;;;4.63;;
19605;SDS011;9950;50.168;8.210;2022-08-19T12:21:59;6.40;;;4.32;;
19605;SDS011;9950;50.168;8.210;2022-08-19T12:24:29;4.15;;;3.75;;
19605;SDS011;9950;50.168;8.210;2022-08-19T12:26:57;5.28;;;3.28;;
19605;SDS011;9950;50.168;8.210;2022-08-19T12:29:27;6.40;;;3.90;;
19605;SDS011;9950;50.168;8.210;2022-08-19T12:31:55;5.82;;;4.18;;
19605;SDS011;9950;50.168;8.210;2022-08-19T12:34:26;4.22;;;3.83;;
19605;SDS011;9950;50.168;8.210;2022-08-19T12:36:55;4.05;;;3.72;;
19605;SDS011;9950;50.168;8.210;2022-08-19T12:39:22;5.63;;;4.05;;
19605;SDS011;9950;50.168;8.210;2022-08-19T12:41:50;4.05;;;3.70;;
19605;SDS011;9950;50.168;8.210;2022-08-19T12:44:17;4.50;;;3.85;;
19605;SDS011;9950;50.168;8.210;2022-08-19T12:46:46;6.05;;;4.13;;
19605;SDS011;9950;50.168;8.210;2022-08-19T12:49:14;4.95;;;4.45;;
19605;SDS011;9950;50.168;8.210;2022-08-19T12:51:41;5.07;;;4.20;;
19605;SDS011;9950;50.168;8.210;2022-08-19T12:54:08;6.30;;;4.50;;
19605;SDS011;9950;50.168;8.210;2022-08-19T12:56:36;4.22;;;3.83;;
19605;SDS011;9950;50.168;8.210;2022-08-19T12:59:03;6.38;;;4.38;;
19605;SDS011;9950;50.168;8.210;2022-08-19T13:01:32;4.53;;;4.00;;
19605;SDS011;9950;50.168;8.210;2022-08-19T13:04:01;4.72;;;4.15;;
19605;SDS011;9950;50.168;8.210;2022-08-19T13:06:29;4.18;;;3.78;;
19605;SDS011;9950;50.168;8.210;2022-08-19T13:08:56;4.40;;;4.00;;
19605;SDS011;9950;50.168;8.210;2022-08-19T13:11:23;5.15;;;3.75;;
19605;SDS011;9950;50.168;8.210;2022-08-19T13:13:51;8.32;;;5.13;;
19605;SDS011;9950;50.168;8.210;2022-08-19T13:16:20;6.18;;;5.32;;
19605;SDS011;9950;50.168;8.210;2022-08-19T13:18:47;8.48;;;5.30;;
19605;SDS011;9950;50.168;8.210;2022-08-19T13:21:16;7.07;;;6.00;;
19605;SDS011;9950;50.168;8.210;2022-08-19T13:23:45;5.95;;;5.35;;
19605;SDS011;9950;50.168;8.210;2022-08-19T13:26:12;5.32;;;4.90;;
19605;SDS011;9950;50.168;8.210;2022-08-19T13:28:40;7.38;;;6.57;;
19605;SDS011;9950;50.168;8.210;2022-08-19T13:31:26;7.18;;;6.55;;
19605;SDS011;9950;50.168;8.210;2022-08-19T13:34:12;7.07;;;6.38;;
19605;SDS011;9950;50.168;8.210;2022-08-19T13:36:41;6.53;;;5.97;;
19605;SDS011;9950;50.168;8.210;2022-08-19T13:39:08;6.57;;;5.95;;
19605;SDS011;9950;50.168;8.210;2022-08-19T13:41:36;6.28;;;5.68;;
19605;SDS011;9950;50.168;8.210;2022-08-19T13:44:03;7.15;;;6.45;;
19605;SDS011;9950;50.168;8.210;2022-08-19T13:46:32;6.40;;;5.80;;
19605;SDS011;9950;50.168;8.210;2022-08-19T13:48:59;6.30;;;5.72;;
19605;SDS011;9950;50.168;8.210;2022-08-19T13:51:27;4.65;;;4.25;;
19605;SDS011;9950;50.168;8.210;2022-08-19T13:53:55;5.93;;;5.07;;
19605;SDS011;9950;50.168;8.210;2022-08-19T13:56:22;5.82;;;4.43;;
19605;SDS011;9950;50.168;8.210;2022-08-19T13:58:50;6.25;;;4.82;;
19605;SDS011;9950;50.168;8.210;2022-08-19T14:01:18;6.18;;;4.53;;
19605;SDS011;9950;50.168;8.210;2022-08-19T14:03:46;6.05;;;5.10;;
19605;SDS011;9950;50.168;8.210;2022-08-19T14:06:13;6.93;;;5.90;;
19605;SDS011;9950;50.168;8.210;2022-08-19T14:08:41;6.20;;;5.60;;
19605;SDS011;9950;50.168;8.210;2022-08-19T14:11:10;5.93;;;5.32;;
19605;SDS011;9950;50.168;8.210;2022-08-19T14:13:37;5.72;;;5.20;;
19605;SDS011;9950;50.168;8.210;2022-08-19T14:16:08;6.10;;;4.72;;
19605;SDS011;9950;50.168;8.210;2022-08-19T14:18:35;5.40;;;4.93;;
19605;SDS011;9950;50.168;8.210;2022-08-19T14:21:03;5.53;;;4.47;;
19605;SDS011;9950;50.168;8.210;2022-08-19T14:23:30;5.75;;;4.70;;
19605;SDS011;9950;50.168;8.210;2022-08-19T14:26:05;4.72;;;4.32;;
19605;SDS011;9950;50.168;8.210;2022-08-19T14:28:34;5.70;;;4.03;;
19605;SDS011;9950;50.168;8.210;2022-08-19T14:31:01;7.88;;;4.97;;
19605;SDS011;9950;50.168;8.210;2022-08-19T14:33:28;5.22;;;4.78;;
19605;SDS011;9950;50.168;8.210;2022-08-19T14:35:57;5.97;;;4.85;;
19605;SDS011;9950;50.168;8.210;2022-08-19T14:38:25;6.60;;;5.22;;
19605;SDS011;9950;50.168;8.210;2022-08-19T14:40:52;5.75;;;5.03;;
19605;SDS011;9950;50.168;8.210;2022-08-19T14:43:19;5.20;;;4.65;;
19605;SDS011;9950;50.168;8.210;2022-08-19T14:45:49;5.32;;;4.75;;
19605;SDS011;9950;50.168;8.210;2022-08-19T14:48:16;5.47;;;5.00;;
19605;SDS011;9950;50.168;8.210;2022-08-19T14:50:43;5.25;;;4.75;;